createdAt,value
2018-08-04T00:05:05.194Z,24.40
2018-08-04T00:08:08.378Z,24.30
2018-08-04T00:11:11.627Z,24.30
2018-08-04T00:14:14.713Z,24.20
2018-08-04T00:20:20.645Z,24.20
2018-08-04T00:23:23.953Z,24.10
2018-08-04T00:26:31.197Z,24.10
2018-08-04T00:29:34.276Z,24.10
2018-08-04T00:32:37.329Z,24.10
2018-08-04T00:35:40.429Z,24.10
2018-08-04T00:38:43.509Z,24.10
2018-08-04T00:41:46.585Z,24.10
2018-08-04T00:44:49.681Z,24.10
2018-08-04T00:47:52.748Z,24.20
2018-08-04T00:50:55.829Z,24.20
2018-08-04T00:53:58.899Z,24.10
2018-08-04T00:57:01.966Z,24.00
2018-08-04T01:00:05.449Z,24.10
2018-08-04T01:03:08.509Z,24.10
2018-08-04T01:06:11.578Z,24.00
2018-08-04T01:09:14.661Z,24.00
2018-08-04T01:15:20.605Z,23.90
2018-08-04T01:18:23.672Z,23.90
2018-08-04T01:21:26.765Z,23.80
2018-08-04T01:24:29.860Z,23.90
2018-08-04T01:27:32.966Z,23.90
2018-08-04T01:30:36.076Z,23.80
2018-08-04T01:33:39.165Z,23.70
2018-08-04T01:36:42.231Z,23.70
2018-08-04T01:39:45.325Z,23.60
2018-08-04T01:42:48.422Z,23.50
2018-08-04T01:45:51.513Z,23.60
2018-08-04T01:48:54.593Z,23.60
2018-08-04T01:51:57.697Z,23.70
2018-08-04T01:55:00.775Z,23.70
2018-08-04T01:58:03.886Z,23.60
2018-08-04T02:01:06.981Z,23.40
2018-08-04T02:04:10.877Z,23.40
2018-08-04T02:07:13.983Z,23.50
2018-08-04T02:10:17.045Z,23.40
2018-08-04T02:13:20.110Z,23.40
2018-08-04T02:16:23.269Z,23.40
2018-08-04T02:19:26.361Z,23.40
2018-08-04T02:22:29.458Z,23.40
2018-08-04T02:25:32.548Z,23.40
2018-08-04T02:31:38.489Z,23.30
2018-08-04T02:34:41.562Z,23.30
2018-08-04T02:37:44.653Z,23.20
2018-08-04T02:40:47.749Z,23.20
2018-08-04T02:43:50.826Z,23.30
2018-08-04T02:46:53.953Z,23.30
2018-08-04T02:49:57.002Z,23.20
2018-08-04T02:53:00.084Z,23.10
2018-08-04T02:56:03.213Z,23.00
2018-08-04T02:59:06.330Z,23.00
2018-08-04T03:02:09.391Z,22.90
2018-08-04T03:05:12.465Z,22.70
2018-08-04T03:08:15.604Z,22.60
2018-08-04T03:11:18.685Z,22.60
2018-08-04T03:14:21.749Z,22.50
2018-08-04T03:17:24.850Z,22.50
2018-08-04T03:20:27.914Z,22.50
2018-08-04T03:23:30.969Z,22.50
2018-08-04T03:26:34.117Z,22.50
2018-08-04T03:29:37.193Z,22.50
2018-08-04T03:32:40.261Z,22.40
2018-08-04T03:38:46.283Z,22.50
2018-08-04T03:41:49.438Z,22.50
2018-08-04T03:44:52.730Z,22.40
2018-08-04T03:50:58.845Z,22.10
2018-08-04T03:54:02.073Z,22.10
2018-08-04T03:57:05.715Z,22.20
2018-08-04T04:03:12.082Z,22.30
2018-08-04T04:06:15.230Z,22.20
2018-08-04T04:09:18.584Z,22.20
2018-08-04T04:15:24.918Z,22.20
2018-08-04T04:18:28.162Z,22.20
2018-08-04T04:21:31.362Z,22.30
2018-08-04T04:27:37.734Z,22.40
2018-08-04T04:30:41.106Z,22.40
2018-08-04T04:33:44.391Z,22.50
2018-08-04T04:36:47.696Z,22.50
2018-08-04T04:39:51.020Z,22.60
2018-08-04T04:42:54.278Z,22.70
2018-08-04T04:45:57.559Z,22.70
2018-08-04T04:49:00.758Z,22.80
2018-08-04T04:52:03.995Z,22.90
2018-08-04T04:55:07.166Z,23.00
2018-08-04T04:58:10.504Z,23.00
2018-08-04T05:04:16.865Z,23.10
2018-08-04T05:07:20.061Z,23.20
2018-08-04T05:10:23.375Z,23.40
2018-08-04T05:13:26.636Z,23.50
2018-08-04T05:16:29.894Z,23.50
2018-08-04T05:19:33.207Z,23.50
2018-08-04T05:22:36.449Z,23.50
2018-08-04T05:25:39.633Z,23.50
2018-08-04T05:28:42.842Z,23.70
2018-08-04T05:31:46.141Z,23.90
2018-08-04T05:37:52.751Z,24.20
2018-08-04T05:40:56.022Z,24.80
2018-08-04T05:43:59.230Z,26.20
2018-08-04T05:50:05.911Z,29.70
2018-08-04T05:53:09.098Z,30.90
2018-08-04T05:56:12.282Z,31.70
2018-08-04T05:59:15.607Z,32.40
2018-08-04T06:02:18.955Z,33.50
2018-08-04T06:05:22.213Z,34.60
2018-08-04T06:08:25.386Z,35.50
2018-08-04T06:11:28.570Z,35.70
2018-08-04T06:14:31.750Z,35.80
2018-08-04T06:17:34.882Z,35.60
2018-08-04T06:20:38.071Z,35.70
2018-08-04T06:26:44.128Z,36.50
2018-08-04T06:29:47.534Z,37.40
2018-08-04T06:32:50.866Z,38.00
2018-08-04T06:35:54.081Z,38.50
2018-08-04T06:38:57.366Z,38.80
2018-08-04T06:42:00.759Z,39.20
2018-08-04T06:45:04.207Z,39.40
2018-08-04T06:48:07.427Z,39.40
2018-08-04T06:51:11.288Z,39.30
2018-08-04T06:54:27.807Z,39.40
2018-08-04T06:57:31.141Z,39.30
2018-08-04T07:00:34.250Z,39.40
2018-08-04T07:03:37.326Z,39.50
2018-08-04T07:09:43.276Z,40.00
2018-08-04T07:12:56.188Z,40.10
2018-08-04T07:15:59.281Z,40.60
2018-08-04T07:19:02.369Z,40.30
2018-08-04T07:22:05.426Z,39.80
2018-08-04T07:25:08.528Z,40.40
2018-08-04T07:28:11.610Z,40.70
2018-08-04T07:31:14.700Z,40.80
2018-08-04T07:34:17.820Z,39.60
2018-08-04T07:37:20.813Z,38.90
2018-08-04T07:40:23.887Z,39.40
2018-08-04T07:43:26.953Z,40.30
2018-08-04T07:46:30.040Z,40.50
2018-08-04T07:52:35.963Z,39.00
2018-08-04T07:55:39.043Z,37.80
2018-08-04T07:58:42.129Z,36.90
2018-08-04T08:01:45.209Z,35.90
2018-08-04T08:04:48.297Z,34.70
2018-08-04T08:07:51.402Z,33.30
2018-08-04T08:10:54.592Z,32.30
2018-08-04T08:13:57.606Z,31.50
2018-08-04T08:17:00.826Z,31.10
2018-08-04T08:20:04.725Z,30.80
2018-08-04T08:23:07.849Z,30.30
2018-08-04T08:26:13.562Z,30.00
2018-08-04T08:29:16.630Z,29.90
2018-08-04T08:32:19.673Z,30.10
2018-08-04T08:35:22.819Z,30.50
2018-08-04T08:38:25.857Z,30.60
2018-08-04T08:44:31.794Z,30.60
2018-08-04T08:47:34.858Z,31.00
2018-08-04T08:50:37.937Z,31.60
2018-08-04T08:53:41.065Z,31.90
2018-08-04T09:00:37.141Z,31.80
2018-08-04T09:03:40.221Z,31.50
2018-08-04T09:06:43.277Z,31.70
2018-08-04T09:09:46.358Z,32.20
2018-08-04T09:12:49.417Z,32.70
2018-08-04T09:15:52.521Z,32.60
2018-08-04T09:18:55.589Z,32.50
2018-08-04T09:21:58.665Z,32.30
2018-08-04T09:25:01.769Z,32.10
2018-08-04T09:28:04.849Z,31.90
2018-08-04T09:31:07.924Z,31.60
2018-08-04T09:34:10.965Z,31.50
2018-08-04T09:40:16.885Z,31.70
2018-08-04T09:43:19.962Z,32.10
2018-08-04T09:46:23.060Z,32.50
2018-08-04T09:49:26.140Z,32.90
2018-08-04T09:52:29.231Z,32.90
2018-08-04T09:55:32.282Z,32.80
2018-08-04T09:58:35.396Z,32.90
2018-08-04T10:04:42.133Z,32.40
2018-08-04T10:07:45.214Z,32.60
2018-08-04T10:10:48.283Z,32.80
2018-08-04T10:13:51.344Z,32.40
2018-08-04T10:16:54.417Z,32.00
2018-08-04T10:19:57.499Z,31.80
2018-08-04T10:23:00.594Z,31.70
2018-08-04T10:26:03.712Z,31.70
2018-08-04T10:29:06.766Z,31.60
2018-08-04T10:32:09.947Z,31.30
2018-08-04T10:35:12.926Z,31.30
2018-08-04T10:38:16.035Z,31.20
2018-08-04T10:41:19.112Z,31.20
2018-08-04T10:44:22.173Z,31.30
2018-08-04T10:50:28.102Z,31.60
2018-08-04T10:53:31.180Z,31.50
2018-08-04T10:56:34.273Z,31.40
2018-08-04T10:59:37.333Z,31.30
2018-08-04T11:02:40.425Z,31.20
2018-08-04T11:05:43.473Z,31.20
2018-08-04T11:08:46.545Z,31.00
2018-08-04T11:11:49.653Z,30.50
2018-08-04T11:14:52.735Z,30.40
2018-08-04T11:17:55.825Z,30.40
2018-08-04T11:20:59.045Z,30.50
2018-08-04T11:24:02.228Z,30.60
2018-08-04T11:27:05.438Z,30.80
2018-08-04T11:30:09.079Z,31.00
2018-08-04T11:33:12.297Z,31.20
2018-08-04T11:36:15.527Z,31.20
2018-08-04T11:39:18.783Z,31.30
2018-08-04T11:42:22.016Z,31.40
2018-08-04T11:45:37.203Z,31.50
2018-08-04T11:48:40.394Z,31.60
2018-08-04T11:51:43.626Z,31.60
2018-08-04T11:54:46.822Z,31.40
2018-08-04T11:57:54.014Z,31.40
2018-08-04T12:00:57.213Z,31.40
2018-08-04T12:04:00.406Z,31.20
2018-08-04T12:07:03.592Z,31.10
2018-08-04T12:10:07.010Z,30.90
2018-08-04T12:13:10.232Z,30.60
2018-08-04T12:16:13.517Z,30.40
2018-08-04T12:22:20.022Z,30.40
2018-08-04T12:25:23.316Z,30.60
2018-08-04T12:28:26.598Z,30.70
2018-08-04T12:31:29.832Z,30.80
2018-08-04T12:34:33.086Z,30.80
2018-08-04T12:37:36.315Z,30.80
2018-08-04T12:40:39.480Z,30.70
2018-08-04T12:43:42.678Z,30.90
2018-08-04T12:46:45.935Z,31.00
2018-08-04T12:49:49.180Z,30.90
2018-08-04T12:52:52.469Z,30.90
2018-08-04T12:55:55.665Z,30.70
2018-08-04T12:58:58.977Z,30.60
2018-08-04T13:05:06.201Z,30.60
2018-08-04T13:08:09.449Z,30.50
2018-08-04T13:11:12.768Z,30.30
2018-08-04T13:14:16.035Z,30.30
2018-08-04T13:17:19.259Z,30.40
2018-08-04T13:20:22.570Z,30.40
2018-08-04T13:23:25.832Z,30.30
2018-08-04T13:26:29.071Z,30.30
2018-08-04T13:29:32.273Z,30.40
2018-08-04T13:32:35.550Z,30.50
2018-08-04T13:38:41.771Z,30.40
2018-08-04T13:41:44.978Z,30.50
2018-08-04T13:44:48.135Z,30.50
2018-08-04T13:47:51.357Z,30.40
2018-08-04T13:50:54.522Z,30.40
2018-08-04T13:53:57.823Z,30.30
2018-08-04T13:57:01.163Z,30.30
2018-08-04T14:00:05.286Z,30.30
2018-08-04T14:03:08.502Z,30.40
2018-08-04T14:06:11.742Z,30.40
2018-08-04T14:09:14.900Z,30.30
2018-08-04T14:12:18.097Z,30.30
2018-08-04T14:21:27.397Z,30.40
2018-08-04T14:24:30.561Z,30.40
2018-08-04T14:30:36.706Z,30.40
2018-08-04T14:33:39.929Z,30.40
2018-08-04T14:36:43.174Z,30.50
2018-08-04T14:39:46.391Z,30.40
2018-08-04T14:42:49.707Z,30.40
2018-08-04T14:45:52.979Z,30.40
2018-08-04T14:48:56.254Z,30.30
2018-08-04T14:51:59.546Z,30.30
2018-08-04T14:55:02.813Z,30.20
2018-08-04T15:01:09.054Z,30.30
2018-08-04T15:04:12.545Z,30.20
2018-08-04T15:07:15.730Z,30.30
2018-08-04T15:10:19.023Z,30.30
2018-08-04T15:13:22.267Z,30.30
2018-08-04T15:16:25.448Z,30.40
2018-08-04T15:19:28.711Z,30.40
2018-08-04T15:22:31.993Z,30.40
2018-08-04T15:25:35.287Z,30.40
2018-08-04T15:28:38.645Z,30.40
2018-08-04T15:31:41.919Z,30.40
2018-08-04T15:34:45.227Z,30.30
2018-08-04T15:37:48.430Z,30.20
2018-08-04T15:40:51.615Z,30.20
2018-08-04T15:43:54.818Z,30.10
2018-08-04T15:46:57.974Z,30.10
2018-08-04T15:50:01.258Z,30.10
2018-08-04T15:53:04.817Z,30.00
2018-08-04T15:59:11.006Z,29.90
2018-08-04T16:02:14.259Z,29.90
2018-08-04T16:05:17.557Z,29.90
2018-08-04T16:08:20.789Z,30.00
2018-08-04T16:14:26.922Z,29.90
2018-08-04T16:17:30.090Z,29.80
2018-08-04T16:20:33.725Z,29.90
2018-08-04T16:23:37.000Z,29.80
2018-08-04T16:26:40.352Z,29.70
2018-08-04T16:29:43.505Z,29.70
2018-08-04T16:32:46.842Z,29.70
2018-08-04T16:35:49.981Z,29.60
2018-08-04T16:38:53.290Z,29.60
2018-08-04T16:41:56.610Z,29.50
2018-08-04T16:45:00.075Z,29.40
2018-08-04T16:48:03.566Z,29.40
2018-08-04T16:51:06.764Z,29.30
2018-08-04T16:54:10.138Z,29.20
2018-08-04T16:57:13.386Z,29.20
2018-08-04T17:00:16.658Z,29.20
2018-08-04T17:03:19.962Z,29.10
2018-08-04T17:06:23.187Z,29.00
2018-08-04T17:09:26.406Z,29.00
2018-08-04T17:15:32.714Z,28.90
2018-08-04T17:18:35.935Z,28.80
2018-08-04T17:21:39.106Z,28.70
2018-08-04T17:24:42.173Z,28.70
2018-08-04T17:30:48.106Z,28.50
2018-08-04T17:33:51.173Z,28.50
2018-08-04T17:36:54.238Z,28.50
2018-08-04T17:39:57.309Z,28.40
2018-08-04T17:43:00.376Z,28.30
2018-08-04T17:46:03.474Z,28.30
2018-08-04T17:49:06.514Z,28.20
2018-08-04T17:52:09.612Z,28.20
2018-08-04T17:55:13.949Z,28.10
2018-08-04T17:58:17.045Z,28.00
2018-08-04T18:01:20.101Z,28.00
2018-08-04T18:04:23.180Z,27.90
2018-08-04T18:10:29.109Z,27.80
2018-08-04T18:13:32.181Z,27.70
2018-08-04T18:16:35.298Z,27.70
2018-08-04T18:19:38.381Z,27.60
2018-08-04T18:22:41.472Z,27.50
2018-08-04T18:25:44.533Z,27.50
2018-08-04T18:28:47.609Z,27.40
2018-08-04T18:31:50.729Z,27.40
2018-08-04T18:34:54.065Z,27.40
2018-08-04T18:37:57.177Z,27.30
2018-08-04T18:41:00.230Z,27.20
2018-08-04T18:44:03.285Z,27.20
2018-08-04T18:47:06.369Z,27.10
2018-08-04T18:50:09.443Z,27.00
2018-08-04T18:53:12.498Z,26.90
2018-08-04T18:56:15.549Z,26.80
2018-08-04T18:59:18.607Z,26.80
2018-08-04T19:02:21.705Z,26.70
2018-08-04T19:05:24.797Z,26.60
2018-08-04T19:08:27.928Z,26.50
2018-08-04T19:11:30.972Z,26.50
2018-08-04T19:14:34.072Z,26.40
2018-08-04T19:20:40.037Z,26.30
2018-08-04T19:23:43.109Z,26.30
2018-08-04T19:26:46.169Z,26.20
2018-08-04T19:29:49.297Z,26.20
2018-08-04T19:32:52.373Z,26.20
2018-08-04T19:35:55.436Z,26.20
2018-08-04T19:38:58.513Z,26.20
2018-08-04T19:42:01.585Z,26.10
2018-08-04T19:45:04.679Z,26.10
2018-08-04T19:48:07.778Z,26.10
2018-08-04T19:51:10.866Z,26.00
2018-08-04T19:57:16.785Z,25.90
2018-08-04T20:00:19.879Z,25.80
2018-08-04T20:03:22.955Z,25.80
2018-08-04T20:06:26.041Z,25.70
2018-08-04T20:09:31.194Z,25.70
2018-08-04T20:12:35.153Z,25.60
2018-08-04T20:15:38.229Z,25.50
2018-08-04T20:18:41.303Z,25.50
2018-08-04T20:21:44.393Z,25.40
2018-08-04T20:24:47.477Z,25.40
2018-08-04T20:27:52.616Z,25.40
2018-08-04T20:30:55.701Z,25.30
2018-08-04T20:33:58.809Z,25.20
2018-08-04T20:37:01.881Z,25.20
2018-08-04T20:40:05.621Z,25.10
2018-08-04T20:43:08.693Z,25.00
2018-08-04T20:46:11.793Z,25.00
2018-08-04T20:49:14.869Z,24.90
2018-08-04T20:52:17.935Z,24.80
2018-08-04T20:55:21.005Z,24.80
2018-08-04T20:58:24.155Z,24.70
2018-08-04T21:01:53.233Z,24.60
2018-08-04T21:04:56.328Z,24.60
2018-08-04T21:07:59.437Z,24.50
2018-08-04T21:11:02.530Z,24.50
2018-08-04T21:14:05.623Z,24.40
2018-08-04T21:17:08.718Z,24.30
2018-08-04T21:20:11.809Z,24.20
2018-08-04T21:23:14.865Z,24.20
2018-08-04T21:26:17.933Z,24.10
2018-08-04T21:35:27.434Z,23.90
2018-08-04T21:38:30.500Z,23.80
2018-08-04T21:44:36.443Z,23.70
2018-08-04T21:47:39.513Z,23.60
2018-08-04T21:50:42.617Z,23.60
2018-08-04T21:53:45.684Z,23.50
2018-08-04T21:56:48.749Z,23.40
2018-08-04T22:03:02.569Z,23.40
2018-08-04T22:06:05.949Z,23.30
2018-08-04T22:09:19.545Z,23.30
2018-08-04T22:15:25.482Z,23.20
2018-08-04T22:18:28.541Z,23.10
2018-08-04T22:21:31.619Z,23.10
2018-08-04T22:24:34.697Z,23.00
2018-08-04T22:30:40.630Z,22.90
2018-08-04T22:33:43.684Z,22.80
2018-08-04T22:36:46.777Z,22.80
2018-08-04T22:39:49.880Z,22.70
2018-08-04T22:42:52.952Z,22.70
2018-08-04T22:45:59.055Z,22.70
2018-08-04T22:49:02.134Z,22.60
2018-08-04T22:52:05.238Z,22.50
2018-08-04T22:55:08.857Z,22.50
2018-08-04T22:58:12.052Z,22.50
2018-08-04T23:01:15.134Z,22.40
2018-08-04T23:04:18.201Z,22.30
2018-08-04T23:07:21.282Z,22.30
2018-08-04T23:10:24.376Z,22.30
2018-08-04T23:13:27.469Z,22.20
2018-08-04T23:16:30.518Z,22.20
2018-08-04T23:19:33.587Z,22.20
2018-08-04T23:22:36.669Z,22.10
2018-08-04T23:25:39.740Z,22.10
2018-08-04T23:28:42.801Z,22.10
2018-08-04T23:31:45.881Z,22.00
2018-08-04T23:37:51.969Z,21.90
2018-08-04T23:40:55.058Z,21.90
2018-08-04T23:47:00.985Z,21.80
2018-08-04T23:50:04.353Z,21.70
2018-08-04T23:56:10.276Z,21.70
2018-08-04T23:59:13.345Z,21.60
